Time;durP1;ratioP1;P1;durP2;ratioP2;P2;SDS_P1;SDS_P2;PMS_P1;PMS_P2;Temp;Humidity;BMP_temperature;BMP_pressure;BME280_temperature;BME280_humidity;BME280_pressure;Samples;Min_cycle;Max_cycle;Signal;HPM_P1;HPM_P2
2020/12/15 00:00:09;;;;;;;40.55;7.50;;;9.00;99.90;;;;;;5066871;28;20053;-87
2020/12/15 00:02:41;;;;;;;41.15;5.85;;;9.00;99.90;;;;;;5089092;28;20059;-87
2020/12/15 00:05:12;;;;;;;33.42;4.88;;;9.00;99.90;;;;;;5054866;28;20057;-87
2020/12/15 00:07:42;;;;;;;33.75;6.55;;;9.00;99.90;;;;;;5062309;28;20132;-88
2020/12/15 00:10:13;;;;;;;30.80;3.80;;;9.00;99.90;;;;;;5060775;28;20048;-88
2020/12/15 00:12:43;;;;;;;28.23;3.83;;;9.00;99.90;;;;;;5057253;28;20314;-87
2020/12/15 00:15:12;;;;;;;28.08;3.75;;;9.00;99.90;;;;;;5065465;28;20045;-87
2020/12/15 00:17:44;;;;;;;31.05;3.28;;;9.00;99.90;;;;;;5070301;28;20110;-87
2020/12/15 00:20:14;;;;;;;25.83;3.50;;;9.00;99.90;;;;;;5059514;28;20063;-87
2020/12/15 00:22:44;;;;;;;23.08;3.50;;;9.00;99.90;;;;;;5066529;28;20044;-87
2020/12/15 00:25:13;;;;;;;20.92;3.60;;;9.00;99.90;;;;;;5060876;28;20106;-87
2020/12/15 00:27:46;;;;;;;25.45;3.55;;;9.00;99.90;;;;;;5068722;28;20037;-87
2020/12/15 00:30:16;;;;;;;26.45;3.92;;;9.00;99.90;;;;;;5050708;28;23623;-87
2020/12/15 00:32:49;;;;;;;28.42;3.58;;;8.90;99.90;;;;;;5059367;28;20135;-87
2020/12/15 00:35:19;;;;;;;26.60;3.55;;;8.90;99.90;;;;;;5052129;28;20049;-87
2020/12/15 00:37:51;;;;;;;26.23;3.00;;;8.90;99.90;;;;;;5067436;28;20068;-87
2020/12/15 00:40:22;;;;;;;19.33;3.03;;;8.90;99.90;;;;;;5057703;28;20483;-87
2020/12/15 00:42:53;;;;;;;19.38;3.25;;;8.90;99.90;;;;;;5057274;28;20047;-88
2020/12/15 00:45:23;;;;;;;20.00;3.13;;;8.90;99.90;;;;;;5051152;28;20052;-88
2020/12/15 00:47:55;;;;;;;21.88;3.20;;;8.80;99.90;;;;;;5069741;28;20049;-87
2020/12/15 00:50:24;;;;;;;26.75;3.53;;;8.80;99.90;;;;;;5063966;28;20080;-88
2020/12/15 00:52:53;;;;;;;24.67;3.47;;;8.80;99.90;;;;;;5059389;28;20051;-88
2020/12/15 00:55:24;;;;;;;22.73;3.90;;;8.80;99.90;;;;;;5051320;28;20049;-87
2020/12/15 00:57:55;;;;;;;30.00;3.97;;;8.80;99.90;;;;;;5057113;28;20041;-88
2020/12/15 01:00:25;;;;;;;21.92;3.00;;;8.80;99.90;;;;;;5065283;28;20055;-88
2020/12/15 01:02:56;;;;;;;22.33;3.00;;;8.80;99.90;;;;;;5071497;28;20049;-88
2020/12/15 01:05:27;;;;;;;23.30;2.80;;;8.80;99.90;;;;;;5050884;28;20390;-88
2020/12/15 01:07:56;;;;;;;21.58;2.97;;;8.90;99.90;;;;;;5058509;28;20538;-88
2020/12/15 01:10:27;;;;;;;21.00;3.20;;;8.90;99.90;;;;;;5052750;28;20127;-87
2020/12/15 01:12:58;;;;;;;17.67;2.95;;;8.90;99.90;;;;;;5057489;28;20131;-88
2020/12/15 01:15:30;;;;;;;24.80;3.75;;;8.90;99.90;;;;;;5052081;28;20071;-87
2020/12/15 01:17:59;;;;;;;24.13;2.78;;;8.90;99.90;;;;;;5055012;28;20053;-87
2020/12/15 01:20:30;;;;;;;19.90;3.38;;;8.90;99.90;;;;;;5053842;28;20368;-87
2020/12/15 01:23:01;;;;;;;16.55;2.50;;;8.90;99.90;;;;;;5067896;28;20382;-87
2020/12/15 01:25:31;;;;;;;20.42;3.10;;;8.90;99.90;;;;;;5065221;28;20098;-88
2020/12/15 01:28:04;;;;;;;22.83;3.35;;;8.90;99.90;;;;;;5066388;28;20293;-88
2020/12/15 01:30:32;;;;;;;20.13;2.83;;;8.90;99.90;;;;;;5067654;28;20319;-88
2020/12/15 01:33:02;;;;;;;14.50;1.90;;;8.90;99.90;;;;;;5070499;28;20119;-88
2020/12/15 01:35:31;;;;;;;11.75;2.00;;;8.90;99.90;;;;;;5053805;28;20064;-87
2020/12/15 01:38:02;;;;;;;16.88;2.40;;;9.00;99.90;;;;;;5070307;28;20121;-87
2020/12/15 01:40:37;;;;;;;15.90;1.95;;;9.00;99.90;;;;;;5052859;28;20119;-87
2020/12/15 01:43:08;;;;;;;20.80;2.38;;;9.00;99.90;;;;;;5030113;28;20045;-88
2020/12/15 01:45:39;;;;;;;21.75;2.35;;;9.10;99.90;;;;;;5037298;28;20474;-89
2020/12/15 01:48:14;;;;;;;13.60;2.92;;;9.10;99.90;;;;;;5019018;28;20046;-88
2020/12/15 01:50:46;;;;;;;25.10;2.95;;;9.10;99.90;;;;;;5036847;28;20127;-89
2020/12/15 01:53:18;;;;;;;20.35;3.15;;;9.10;99.90;;;;;;5032392;28;20087;-89
2020/12/15 01:55:50;;;;;;;18.40;3.45;;;9.10;99.90;;;;;;5024309;28;20049;-88
2020/12/15 01:58:21;;;;;;;24.50;2.72;;;9.10;99.90;;;;;;5023548;28;20041;-87
2020/12/15 02:00:50;;;;;;;30.13;3.47;;;9.10;99.90;;;;;;5031444;28;20057;-88
2020/12/15 02:03:23;;;;;;;29.20;3.83;;;9.10;99.90;;;;;;5034512;28;20044;-86
2020/12/15 02:05:52;;;;;;;25.85;2.97;;;9.10;99.90;;;;;;5034899;28;20433;-88
2020/12/15 02:08:21;;;;;;;31.23;3.92;;;9.10;99.90;;;;;;5022613;28;20057;-88
2020/12/15 02:10:51;;;;;;;28.48;3.38;;;9.10;99.90;;;;;;5023781;28;20114;-88
2020/12/15 02:13:26;;;;;;;33.28;3.65;;;9.10;99.90;;;;;;5031370;28;20097;-87
2020/12/15 02:15:56;;;;;;;31.27;4.40;;;9.10;99.90;;;;;;5035292;28;20518;-87
2020/12/15 02:18:28;;;;;;;21.10;3.78;;;9.10;99.90;;;;;;5022911;28;20442;-88
2020/12/15 02:20:59;;;;;;;39.03;4.22;;;9.10;99.90;;;;;;5020838;28;20053;-88
2020/12/15 02:23:29;;;;;;;28.80;3.25;;;9.10;99.90;;;;;;5023066;28;20107;-87
2020/12/15 02:26:03;;;;;;;30.85;4.10;;;9.10;99.90;;;;;;5034502;28;20048;-87
2020/12/15 02:28:33;;;;;;;28.20;3.40;;;9.00;99.90;;;;;;5034564;28;20116;-87
2020/12/15 02:31:04;;;;;;;29.00;3.55;;;9.00;99.90;;;;;;5034218;28;20099;-87
2020/12/15 02:33:34;;;;;;;30.35;4.20;;;9.00;99.90;;;;;;5023419;28;20045;-88
2020/12/15 02:36:03;;;;;;;22.17;3.63;;;9.00;99.90;;;;;;5021967;28;20066;-88
2020/12/15 02:38:35;;;;;;;24.42;3.42;;;8.90;99.90;;;;;;5036397;28;20072;-87
2020/12/15 02:41:05;;;;;;;24.02;3.28;;;8.90;99.90;;;;;;5034926;28;20549;-87
2020/12/15 02:43:37;;;;;;;20.55;3.13;;;8.90;99.90;;;;;;5030822;28;20045;-87
2020/12/15 02:46:07;;;;;;;27.90;3.58;;;8.90;99.90;;;;;;5023110;28;20132;-87
2020/12/15 02:48:39;;;;;;;23.02;3.35;;;8.90;99.90;;;;;;5024228;28;20474;-87
2020/12/15 02:51:08;;;;;;;20.40;2.80;;;8.90;99.90;;;;;;5037394;28;20072;-87
2020/12/15 02:53:37;;;;;;;21.45;2.63;;;8.90;99.90;;;;;;5038084;28;20057;-88
2020/12/15 02:56:06;;;;;;;21.45;3.10;;;8.90;99.90;;;;;;5026093;28;20056;-88
2020/12/15 02:58:35;;;;;;;22.90;3.17;;;8.90;99.90;;;;;;5027721;28;20053;-87
2020/12/15 03:01:04;;;;;;;25.20;2.85;;;8.90;99.90;;;;;;5033266;28;20045;-88
2020/12/15 03:03:33;;;;;;;;;;;8.90;99.90;;;;;;5036917;28;20129;-88
2020/12/15 03:06:02;;;;;;;;;;;8.90;99.90;;;;;;5020374;28;20355;-88
2020/12/15 03:08:32;;;;;;;25.85;3.42;;;8.80;99.90;;;;;;5037659;28;19927;-88
2020/12/15 03:11:01;;;;;;;25.58;3.17;;;8.80;99.90;;;;;;5032956;28;20053;-88
2020/12/15 03:13:30;;;;;;;25.38;4.25;;;8.80;99.90;;;;;;5034845;28;20068;-88
2020/12/15 03:16:00;;;;;;;22.55;3.13;;;8.70;99.90;;;;;;5032862;28;20053;-87
2020/12/15 03:18:29;;;;;;;23.50;3.30;;;8.70;99.90;;;;;;5033976;28;20045;-88
2020/12/15 03:21:02;;;;;;;25.38;3.40;;;8.70;99.90;;;;;;5037356;28;20077;-87
2020/12/15 03:23:30;;;;;;;28.65;3.40;;;8.70;99.90;;;;;;5034657;28;20079;-88
2020/12/15 03:26:03;;;;;;;22.45;4.05;;;8.70;99.90;;;;;;5034193;28;20109;-88
2020/12/15 03:28:34;;;;;;;22.55;3.17;;;8.70;99.90;;;;;;5029283;28;20049;-88
2020/12/15 03:31:04;;;;;;;25.38;3.97;;;8.70;99.90;;;;;;5022412;28;20056;-87
2020/12/15 03:33:35;;;;;;;23.52;3.47;;;8.70;99.90;;;;;;5022803;28;20048;-87
2020/12/15 03:36:07;;;;;;;24.83;4.13;;;8.70;99.90;;;;;;5021273;28;20144;-88
2020/12/15 03:38:37;;;;;;;24.35;3.80;;;8.70;99.90;;;;;;5038837;28;20053;-87
2020/12/15 03:41:07;;;;;;;27.08;4.22;;;8.80;99.90;;;;;;5047791;28;20061;-88
2020/12/15 03:43:36;;;;;;;35.53;4.80;;;8.80;99.90;;;;;;5064578;28;20045;-88
2020/12/15 03:46:07;;;;;;;17.70;2.97;;;8.80;99.90;;;;;;5057985;28;20044;-88
2020/12/15 03:48:36;;;;;;;22.75;3.08;;;8.80;99.90;;;;;;5057592;28;20045;-88
2020/12/15 03:51:09;;;;;;;15.48;2.10;;;8.90;99.90;;;;;;5063495;28;20131;-87
2020/12/15 03:53:38;;;;;;;9.82;1.60;;;8.90;99.90;;;;;;5055660;28;20061;-88
2020/12/15 03:56:12;;;;;;;8.13;1.15;;;8.90;99.90;;;;;;5058443;28;20454;-87
2020/12/15 03:58:41;;;;;;;8.18;1.05;;;9.00;99.90;;;;;;5061482;28;20052;-87
2020/12/15 04:01:10;;;;;;;5.32;0.90;;;9.00;99.90;;;;;;5068819;28;20122;-88
2020/12/15 04:03:41;;;;;;;6.43;1.00;;;9.00;99.90;;;;;;5070057;28;20044;-87
2020/12/15 04:06:13;;;;;;;4.95;1.13;;;9.00;99.90;;;;;;5057461;28;20051;-87
2020/12/15 04:08:45;;;;;;;5.15;1.15;;;8.90;99.90;;;;;;5073826;28;20091;-87
2020/12/15 04:11:14;;;;;;;7.55;1.20;;;8.90;99.90;;;;;;5060725;28;20062;-88
2020/12/15 04:13:44;;;;;;;8.68;1.30;;;8.90;99.90;;;;;;5067810;28;20438;-87
2020/12/15 04:16:15;;;;;;;11.05;1.10;;;8.80;99.90;;;;;;5065448;28;20087;-88
2020/12/15 04:18:44;;;;;;;7.00;1.17;;;8.80;99.90;;;;;;5053092;28;20103;-88
2020/12/15 04:21:16;;;;;;;7.43;1.38;;;8.80;99.90;;;;;;5036216;28;20116;-88
2020/12/15 04:23:48;;;;;;;6.18;1.00;;;8.70;99.90;;;;;;5067770;28;20052;-88
2020/12/15 04:26:18;;;;;;;10.38;1.52;;;8.70;99.90;;;;;;5069524;28;20079;-88
2020/12/15 04:28:53;;;;;;;11.00;1.70;;;8.60;99.90;;;;;;5060231;28;20128;-88
2020/12/15 04:31:23;;;;;;;8.52;1.17;;;8.60;99.90;;;;;;5058477;28;20056;-88
2020/12/15 04:33:54;;;;;;;11.93;1.48;;;8.50;99.90;;;;;;5057231;28;20479;-88
2020/12/15 04:36:25;;;;;;;8.77;1.60;;;8.50;99.90;;;;;;5040291;28;20071;-88
2020/12/15 04:38:54;;;;;;;12.60;1.90;;;8.50;99.90;;;;;;5075585;28;20052;-88
2020/12/15 04:41:25;;;;;;;14.15;1.80;;;8.40;99.90;;;;;;5056516;28;20067;-87
2020/12/15 04:43:56;;;;;;;16.55;2.95;;;8.40;99.90;;;;;;5059380;28;20120;-88
2020/12/15 04:46:29;;;;;;;16.85;2.35;;;8.40;99.90;;;;;;5058420;28;20934;-88
2020/12/15 04:49:08;;;;;;;17.58;2.38;;;8.40;99.90;;;;;;5058535;28;20123;-88
2020/12/15 04:51:52;;;;;;;17.60;2.65;;;8.30;99.90;;;;;;5059747;28;20057;-87
2020/12/15 04:54:34;;;;;;;22.58;3.55;;;8.30;99.90;;;;;;5073505;28;20473;-87
2020/12/15 04:57:04;;;;;;;26.42;3.50;;;8.20;99.90;;;;;;5055266;28;20060;-87
2020/12/15 04:59:34;;;;;;;23.83;3.83;;;8.20;99.90;;;;;;5072828;28;20044;-88
2020/12/15 05:02:05;;;;;;;28.13;3.28;;;8.20;99.90;;;;;;5066561;28;20056;-88
2020/12/15 05:04:40;;;;;;;26.88;3.67;;;8.20;99.90;;;;;;5067943;28;20044;-88
2020/12/15 05:07:13;;;;;;;34.17;4.30;;;8.20;99.90;;;;;;5066145;28;20053;-88
2020/12/15 05:09:46;;;;;;;28.90;3.58;;;8.10;99.90;;;;;;5056727;28;20051;-88
2020/12/15 05:12:16;;;;;;;28.98;3.53;;;8.10;99.90;;;;;;5058039;28;20052;-88
2020/12/15 05:14:52;;;;;;;24.27;4.15;;;8.10;99.90;;;;;;5069709;28;20474;-88
2020/12/15 05:17:23;;;;;;;20.38;3.58;;;8.10;99.90;;;;;;5067832;28;20059;-88
2020/12/15 05:19:53;;;;;;;23.02;3.15;;;8.10;99.90;;;;;;5059771;28;20128;-87
2020/12/15 05:22:24;;;;;;;29.33;3.75;;;8.10;99.90;;;;;;5058100;28;20084;-88
2020/12/15 05:24:53;;;;;;;33.15;4.03;;;8.10;99.90;;;;;;5068729;28;20051;-87
2020/12/15 05:27:30;;;;;;;21.85;3.40;;;8.10;99.90;;;;;;5070057;28;20074;-88
2020/12/15 05:30:12;;;;;;;25.10;3.55;;;8.20;99.90;;;;;;5054854;28;20049;-87
2020/12/15 05:32:56;;;;;;;21.60;2.90;;;8.20;99.90;;;;;;5056550;28;20057;-88
2020/12/15 05:35:36;;;;;;;21.80;3.20;;;8.20;99.90;;;;;;5065619;28;20072;-88
2020/12/15 05:38:07;;;;;;;22.17;3.08;;;8.20;99.90;;;;;;5057951;28;20131;-88
2020/12/15 05:40:42;;;;;;;15.75;3.20;;;8.20;99.90;;;;;;5052953;28;20058;-88
2020/12/15 05:43:12;;;;;;;20.27;3.25;;;8.20;99.90;;;;;;5066083;28;20068;-88
2020/12/15 05:45:50;;;;;;;18.98;2.70;;;8.20;99.90;;;;;;5057377;28;20056;-88
2020/12/15 05:48:18;;;;;;;18.75;3.10;;;8.30;99.90;;;;;;5045732;28;20057;-87
2020/12/15 05:50:57;;;;;;;16.20;3.25;;;8.30;99.90;;;;;;5073120;28;20070;-88
2020/12/15 05:53:27;;;;;;;16.92;2.35;;;8.40;99.90;;;;;;5059913;28;20460;-88
2020/12/15 05:55:58;;;;;;;18.70;2.85;;;8.50;99.90;;;;;;5059008;28;20052;-88
2020/12/15 05:58:27;;;;;;;20.23;2.35;;;8.50;99.90;;;;;;5063451;28;20374;-87
2020/12/15 06:01:09;;;;;;;19.05;2.90;;;8.60;99.90;;;;;;5071593;28;20052;-87
2020/12/15 06:03:39;;;;;;;13.15;2.53;;;8.60;99.90;;;;;;5042135;28;20048;-88
2020/12/15 06:06:11;;;;;;;18.88;3.63;;;8.70;99.90;;;;;;5062254;28;20049;-88
2020/12/15 06:08:42;;;;;;;23.63;3.10;;;8.70;99.90;;;;;;5075998;28;20107;-88
2020/12/15 06:11:16;;;;;;;22.42;3.03;;;8.70;99.90;;;;;;5060085;28;20056;-87
2020/12/15 06:13:53;;;;;;;15.18;2.40;;;8.80;99.90;;;;;;5068140;28;20512;-89
2020/12/15 06:16:25;;;;;;;15.23;2.35;;;8.80;99.90;;;;;;5066873;28;20390;-89
2020/12/15 06:18:55;;;;;;;7.13;1.08;;;8.90;99.90;;;;;;5057765;28;20057;-88
2020/12/15 06:21:28;;;;;;;12.90;1.33;;;9.00;99.90;;;;;;5058527;28;20044;-88
2020/12/15 06:24:05;;;;;;;9.45;1.88;;;8.90;99.90;;;;;;5076952;28;20111;-88
2020/12/15 06:26:38;;;;;;;8.68;0.95;;;8.90;99.90;;;;;;5071448;28;20061;-88
2020/12/15 06:29:08;;;;;;;6.82;1.20;;;8.90;99.90;;;;;;5060199;28;20059;-88
2020/12/15 06:31:54;;;;;;;5.43;0.88;;;8.80;99.90;;;;;;5063511;28;20462;-90
2020/12/15 06:34:27;;;;;;;3.70;0.77;;;8.80;99.90;;;;;;5067908;28;20059;-87
2020/12/15 06:36:56;;;;;;;3.45;0.70;;;8.70;99.90;;;;;;5059017;28;20351;-87
2020/12/15 06:39:28;;;;;;;4.13;0.57;;;8.60;99.90;;;;;;5073903;28;20829;-88
2020/12/15 06:42:04;;;;;;;4.88;0.70;;;8.60;99.90;;;;;;5060258;28;20060;-89
2020/12/15 06:44:37;;;;;;;4.07;0.80;;;8.50;99.90;;;;;;5043614;28;20056;-88
2020/12/15 06:47:07;;;;;;;3.72;0.63;;;8.50;99.90;;;;;;5050221;28;20055;-91
2020/12/15 06:49:45;;;;;;;5.97;0.70;;;8.50;99.90;;;;;;5056121;28;20051;-90
2020/12/15 06:52:30;;;;;;;3.42;0.88;;;8.50;99.90;;;;;;5055815;28;20118;-93
2020/12/15 06:55:18;;;;;;;6.18;0.70;;;8.40;99.90;;;;;;5055790;28;20099;-92
2020/12/15 06:58:03;;;;;;;8.02;1.23;;;8.40;99.90;;;;;;5058180;28;20503;-93
2020/12/15 07:00:42;;;;;;;3.95;0.90;;;8.30;99.90;;;;;;5049527;28;20353;-93
2020/12/15 07:03:33;;;;;;;3.92;0.95;;;8.30;99.90;;;;;;5042338;28;20449;-93
2020/12/15 07:06:27;;;;;;;9.48;1.73;;;8.20;99.90;;;;;;5050153;28;20052;-89
2020/12/15 07:09:03;;;;;;;5.35;0.73;;;8.10;99.90;;;;;;5053314;28;20056;-88
2020/12/15 07:11:38;;;;;;;3.83;0.70;;;8.00;99.90;;;;;;5045341;28;20073;-89
2020/12/15 07:14:10;;;;;;;4.45;1.00;;;8.00;99.90;;;;;;5047894;28;20057;-89
2020/12/15 07:16:42;;;;;;;8.20;1.25;;;7.90;99.90;;;;;;5047651;28;20383;-89
2020/12/15 07:19:15;;;;;;;5.18;0.90;;;7.80;99.90;;;;;;5047024;28;20458;-89
2020/12/15 07:21:48;;;;;;;12.07;2.15;;;7.80;99.90;;;;;;5041710;28;20075;-89
2020/12/15 07:24:20;;;;;;;8.43;1.40;;;7.70;99.90;;;;;;5051454;28;20853;-89
2020/12/15 07:26:52;;;;;;;13.32;1.85;;;7.60;99.90;;;;;;5054887;28;20053;-89
2020/12/15 07:29:23;;;;;;;10.82;1.33;;;7.50;99.90;;;;;;5048042;28;20056;-89
2020/12/15 07:31:54;;;;;;;12.88;1.40;;;7.50;99.90;;;;;;5051073;28;20056;-88
2020/12/15 07:34:25;;;;;;;7.55;1.60;;;7.40;99.90;;;;;;5051009;28;20106;-89
2020/12/15 07:36:58;;;;;;;10.63;1.65;;;7.40;99.90;;;;;;5052156;28;20402;-89
2020/12/15 07:39:28;;;;;;;10.43;1.27;;;7.30;99.90;;;;;;5042353;28;20052;-87
2020/12/15 07:42:04;;;;;;;11.20;2.13;;;7.30;99.90;;;;;;5036337;28;20065;-88
2020/12/15 07:44:45;;;;;;;18.30;3.60;;;7.20;99.90;;;;;;5022344;28;20163;-87
2020/12/15 07:47:14;;;;;;;16.33;5.07;;;7.20;99.90;;;;;;5025851;28;20053;-88
2020/12/15 07:49:51;;;;;;;22.88;10.10;;;7.10;99.90;;;;;;5027430;28;20114;-87
2020/12/15 07:52:35;;;;;;;17.38;9.45;;;7.10;99.90;;;;;;5033581;28;20045;-87
2020/12/15 07:55:13;;;;;;;23.98;8.88;;;7.10;99.90;;;;;;5024365;28;20076;-87
2020/12/15 07:57:48;;;;;;;18.65;7.68;;;7.00;99.90;;;;;;5021425;28;20041;-87
2020/12/15 08:00:24;;;;;;;16.85;7.68;;;7.00;99.90;;;;;;5025981;28;20107;-87
2020/12/15 08:03:02;;;;;;;21.90;7.55;;;7.00;99.90;;;;;;5027482;28;20111;-87
2020/12/15 08:05:31;;;;;;;;;;;6.90;99.90;;;;;;5035956;28;20049;-87
2020/12/15 08:08:03;;;;;;;22.55;5.60;;;6.90;99.90;;;;;;5025085;28;19920;-88
2020/12/15 08:10:34;;;;;;;13.65;3.20;;;6.80;99.90;;;;;;5025252;28;20049;-87
2020/12/15 08:13:05;;;;;;;17.85;2.70;;;6.80;99.90;;;;;;5032626;28;20104;-87
2020/12/15 08:15:41;;;;;;;18.33;3.20;;;6.90;99.90;;;;;;5032374;28;20380;-87
2020/12/15 08:18:11;;;;;;;22.17;3.67;;;6.90;99.90;;;;;;5030249;28;20049;-87
2020/12/15 08:20:42;;;;;;;18.95;3.13;;;6.90;99.90;;;;;;5034572;28;20052;-87
2020/12/15 08:23:14;;;;;;;15.13;2.08;;;7.00;99.90;;;;;;5022301;28;20056;-88
2020/12/15 08:25:45;;;;;;;16.48;2.20;;;7.00;99.90;;;;;;5031197;28;20049;-87
2020/12/15 08:28:21;;;;;;;17.15;2.20;;;7.00;99.90;;;;;;5031886;28;20072;-87
2020/12/15 08:31:08;;;;;;;16.05;1.77;;;7.00;99.90;;;;;;5031397;28;20367;-87
2020/12/15 08:33:38;;;;;;;10.57;1.80;;;7.10;99.90;;;;;;5024137;28;20072;-87
2020/12/15 08:36:11;;;;;;;18.73;2.10;;;7.10;99.90;;;;;;5020190;28;20056;-87
2020/12/15 08:38:43;;;;;;;12.10;1.67;;;7.10;99.90;;;;;;5035650;28;20079;-88
2020/12/15 08:41:16;;;;;;;13.85;1.80;;;7.10;99.90;;;;;;5041250;28;20373;-87
2020/12/15 08:43:49;;;;;;;21.05;3.10;;;7.10;99.90;;;;;;5062555;28;20052;-87
2020/12/15 08:46:19;;;;;;;15.15;2.00;;;7.20;99.90;;;;;;5059289;28;20053;-87
2020/12/15 08:48:51;;;;;;;12.50;2.13;;;7.20;99.90;;;;;;5061504;28;20045;-86
2020/12/15 08:51:24;;;;;;;18.30;2.08;;;7.20;99.90;;;;;;5069944;28;20132;-87
2020/12/15 08:53:54;;;;;;;9.98;1.92;;;7.30;99.90;;;;;;5060989;28;20132;-87
2020/12/15 08:56:24;;;;;;;14.10;2.25;;;7.30;99.90;;;;;;5056459;28;20526;-87
2020/12/15 08:58:56;;;;;;;13.27;2.10;;;7.40;99.90;;;;;;5059978;28;20398;-87
2020/12/15 09:01:31;;;;;;;10.82;1.88;;;7.50;99.90;;;;;;5064813;28;20053;-88
2020/12/15 09:04:00;;;;;;;10.45;1.65;;;7.50;99.90;;;;;;5059787;28;20077;-87
2020/12/15 09:06:55;;;;;;;15.10;1.90;;;7.60;99.90;;;;;;5061710;28;20048;-87
2020/12/15 09:09:30;;;;;;;13.38;2.33;;;7.70;99.90;;;;;;5064462;28;20052;-86
2020/12/15 09:12:00;;;;;;;11.05;1.70;;;7.80;99.90;;;;;;5062867;28;20052;-87
2020/12/15 09:14:29;;;;;;;8.55;1.67;;;7.90;99.90;;;;;;5067362;28;20068;-87
2020/12/15 09:16:59;;;;;;;12.43;2.00;;;7.90;99.90;;;;;;5066428;28;20053;-87
2020/12/15 09:19:28;;;;;;;18.83;2.00;;;8.00;99.90;;;;;;5058638;28;20104;-87
2020/12/15 09:22:08;;;;;;;20.50;1.98;;;8.10;99.90;;;;;;5061029;28;20044;-87
2020/12/15 09:24:43;;;;;;;12.25;1.83;;;8.20;99.90;;;;;;5059682;28;20052;-87
2020/12/15 09:27:23;;;;;;;16.45;2.25;;;8.40;99.90;;;;;;5074589;28;20056;-87
2020/12/15 09:29:52;;;;;;;14.32;1.75;;;8.50;99.90;;;;;;5075062;28;20110;-87
2020/12/15 09:32:21;;;;;;;17.38;2.38;;;8.60;99.90;;;;;;5071119;28;20499;-88
2020/12/15 09:34:50;;;;;;;;;;;8.80;99.90;;;;;;5069676;28;20049;-88
2020/12/15 09:37:19;;;;;;;;;;;8.90;99.90;;;;;;5075892;28;19951;-87
2020/12/15 09:39:49;;;;;;;9.35;2.15;;;9.00;99.90;;;;;;5072993;28;19924;-87
2020/12/15 09:42:24;;;;;;;9.75;1.70;;;9.10;99.90;;;;;;5074307;28;20053;-87
2020/12/15 09:44:53;;;;;;;11.43;1.90;;;9.20;99.90;;;;;;5072688;28;20450;-87
2020/12/15 09:47:22;;;;;;;10.30;1.88;;;9.30;99.90;;;;;;5069522;28;20366;-87
2020/12/15 09:49:52;;;;;;;14.85;1.60;;;9.40;99.90;;;;;;5070523;28;20422;-87
2020/12/15 09:52:21;;;;;;;10.70;1.60;;;9.50;99.90;;;;;;5070685;28;20052;-87
2020/12/15 09:54:50;;;;;;;17.58;2.35;;;9.70;99.90;;;;;;5070997;28;20053;-87
2020/12/15 09:57:21;;;;;;;12.50;2.17;;;9.80;99.90;;;;;;5057256;28;20088;-87
2020/12/15 09:59:51;;;;;;;18.88;2.50;;;9.90;99.90;;;;;;5068069;28;20044;-88
2020/12/15 10:02:21;;;;;;;12.40;2.40;;;10.00;99.90;;;;;;5062609;28;20053;-88
2020/12/15 10:04:51;;;;;;;12.27;2.22;;;10.10;99.90;;;;;;5066467;28;20052;-87
2020/12/15 10:07:20;;;;;;;18.25;2.75;;;10.20;99.90;;;;;;5069433;28;20059;-88
2020/12/15 10:09:54;;;;;;;13.43;2.55;;;10.20;99.90;;;;;;5062470;28;20119;-87
2020/12/15 10:12:25;;;;;;;15.18;2.58;;;10.30;99.90;;;;;;5068603;28;20545;-87
2020/12/15 10:14:55;;;;;;;16.70;2.40;;;10.40;99.90;;;;;;5060880;28;20103;-88
2020/12/15 10:17:27;;;;;;;18.50;3.45;;;10.40;99.90;;;;;;5058400;28;20059;-86
2020/12/15 10:19:58;;;;;;;15.10;2.47;;;10.50;99.90;;;;;;5056699;28;20052;-88
2020/12/15 10:22:29;;;;;;;15.60;2.22;;;10.50;99.90;;;;;;5058359;28;20131;-88
2020/12/15 10:24:58;;;;;;;18.08;2.33;;;10.60;99.90;;;;;;5060957;28;20041;-88
2020/12/15 10:27:30;;;;;;;9.70;1.65;;;10.70;99.90;;;;;;5058422;28;20071;-88
2020/12/15 10:30:01;;;;;;;10.52;1.67;;;10.80;99.90;;;;;;5069333;28;20052;-88
2020/12/15 10:32:33;;;;;;;10.65;1.42;;;10.90;99.90;;;;;;5073488;28;20049;-88
2020/12/15 10:35:04;;;;;;;13.57;1.67;;;11.00;99.90;;;;;;5063374;28;20063;-88
2020/12/15 10:37:35;;;;;;;8.40;1.67;;;11.00;99.90;;;;;;5065858;28;20595;-88
2020/12/15 10:40:06;;;;;;;10.00;1.77;;;11.10;99.90;;;;;;5062145;28;20053;-87
2020/12/15 10:42:36;;;;;;;15.15;1.52;;;11.20;99.90;;;;;;5029273;28;20099;-87
2020/12/15 10:45:11;;;;;;;14.98;1.80;;;11.30;99.90;;;;;;5030764;28;20084;-87
2020/12/15 10:47:40;;;;;;;14.00;1.65;;;11.40;99.90;;;;;;5028095;28;20052;-88
2020/12/15 10:50:09;;;;;;;;;;;11.50;99.90;;;;;;5033468;28;20065;-88
2020/12/15 10:52:38;;;;;;;7.57;1.10;;;11.50;99.90;;;;;;5027916;28;20019;-88
2020/12/15 10:55:07;;;;;;;9.93;1.80;;;11.50;99.90;;;;;;5028542;28;20443;-88
2020/12/15 10:57:36;;;;;;;12.20;1.50;;;11.60;99.90;;;;;;5031964;28;20163;-88
2020/12/15 11:00:06;;;;;;;11.88;1.35;;;11.60;99.90;;;;;;5029855;28;20045;-88
2020/12/15 11:02:37;;;;;;;7.53;1.55;;;11.60;99.90;;;;;;5028223;28;20479;-87
2020/12/15 11:05:09;;;;;;;8.25;1.30;;;11.70;99.90;;;;;;5031574;28;20084;-88
2020/12/15 11:07:39;;;;;;;9.90;1.73;;;11.70;99.90;;;;;;5028811;28;20063;-88
2020/12/15 11:10:09;;;;;;;11.93;1.48;;;11.70;99.90;;;;;;5029138;28;20076;-88
2020/12/15 11:12:41;;;;;;;9.43;1.85;;;11.80;99.90;;;;;;5030903;28;20045;-87
2020/12/15 11:15:09;;;;;;;10.32;1.52;;;11.80;99.90;;;;;;5029495;28;20087;-87
2020/12/15 11:17:44;;;;;;;9.80;1.45;;;11.80;99.90;;;;;;5030988;28;20134;-88
2020/12/15 11:20:14;;;;;;;7.95;1.50;;;11.80;99.90;;;;;;5029995;28;20107;-88
2020/12/15 11:22:44;;;;;;;12.25;1.65;;;11.80;99.90;;;;;;5031978;28;20051;-88
2020/12/15 11:25:17;;;;;;;7.57;1.45;;;11.80;99.90;;;;;;5033587;28;20047;-88
2020/12/15 11:27:48;;;;;;;11.43;1.60;;;11.80;99.90;;;;;;5030540;28;20045;-87
2020/12/15 11:30:18;;;;;;;9.90;1.40;;;11.80;99.90;;;;;;5030101;28;20123;-88
2020/12/15 11:32:48;;;;;;;7.63;1.05;;;11.80;99.90;;;;;;5030906;28;20060;-88
2020/12/15 11:35:16;;;;;;;9.23;1.27;;;11.80;99.90;;;;;;5029483;28;20068;-88
2020/12/15 11:37:46;;;;;;;8.73;1.10;;;11.80;99.90;;;;;;5031145;28;20132;-88
2020/12/15 11:40:18;;;;;;;8.95;1.15;;;11.80;99.90;;;;;;5030857;28;20045;-86
2020/12/15 11:42:46;;;;;;;9.05;1.15;;;11.70;99.90;;;;;;5058529;28;20055;-88
2020/12/15 11:45:14;;;;;;;7.20;1.33;;;11.70;99.90;;;;;;5057180;28;20051;-86
2020/12/15 11:47:45;;;;;;;8.73;1.30;;;11.70;99.90;;;;;;5062030;28;20044;-87
2020/12/15 11:50:19;;;;;;;9.05;1.73;;;11.70;99.90;;;;;;5064571;28;20048;-87
2020/12/15 11:52:49;;;;;;;10.27;1.90;;;11.70;99.90;;;;;;5061481;28;20052;-86
2020/12/15 11:55:17;;;;;;;;;;;11.70;99.90;;;;;;5064318;28;20420;-88
2020/12/15 11:57:51;;;;;;;8.48;1.52;;;11.70;99.90;;;;;;5061105;28;19951;-87
2020/12/15 12:00:19;;;;;;;15.57;1.60;;;11.70;99.90;;;;;;5059619;28;20561;-88
2020/12/15 12:02:46;;;;;;;10.40;1.50;;;11.70;99.90;;;;;;5069166;28;20052;-87
2020/12/15 12:05:19;;;;;;;12.18;1.40;;;11.80;99.90;;;;;;5062812;28;20049;-87
2020/12/15 12:07:54;;;;;;;11.13;1.40;;;11.90;99.90;;;;;;5060225;28;20478;-87
2020/12/15 12:10:23;;;;;;;11.32;1.30;;;12.00;99.90;;;;;;5065429;28;20052;-87
2020/12/15 12:12:54;;;;;;;10.98;1.50;;;12.00;99.90;;;;;;5069205;28;20131;-87
2020/12/15 12:15:25;;;;;;;9.35;1.50;;;12.10;99.90;;;;;;5067539;28;20105;-87
2020/12/15 12:17:54;;;;;;;11.55;1.38;;;12.10;99.90;;;;;;5062673;28;20059;-86
2020/12/15 12:20:24;;;;;;;12.52;1.40;;;12.10;99.90;;;;;;5066000;28;20710;-87
2020/12/15 12:22:53;;;;;;;9.70;1.67;;;12.20;99.90;;;;;;5063491;28;20102;-87
2020/12/15 12:25:22;;;;;;;;;;;12.30;99.90;;;;;;5062954;28;20485;-87
2020/12/15 12:27:51;;;;;;;9.77;1.30;;;12.30;99.90;;;;;;5067476;28;19921;-86
2020/12/15 12:30:20;;;;;;;11.38;1.30;;;12.30;99.90;;;;;;5065543;28;20139;-86
2020/12/15 12:32:52;;;;;;;15.75;1.38;;;12.30;99.90;;;;;;5061328;28;20127;-86
2020/12/15 12:35:21;;;;;;;9.13;1.15;;;12.30;99.90;;;;;;5067780;28;20047;-87
2020/12/15 12:37:50;;;;;;;8.30;1.30;;;12.30;99.90;;;;;;5065673;28;20136;-88
2020/12/15 12:40:19;;;;;;;8.10;1.48;;;12.30;99.90;;;;;;5062098;28;20045;-87
2020/12/15 12:42:50;;;;;;;11.45;1.73;;;12.30;99.90;;;;;;5072380;28;20059;-86
2020/12/15 12:45:19;;;;;;;12.13;1.50;;;12.30;99.90;;;;;;5056664;28;20053;-87
2020/12/15 12:47:47;;;;;;;10.65;1.75;;;12.30;99.90;;;;;;5058966;28;20053;-87
2020/12/15 12:50:17;;;;;;;12.25;1.80;;;12.20;99.90;;;;;;5035956;28;20045;-87
2020/12/15 12:52:46;;;;;;;13.05;1.73;;;12.10;99.90;;;;;;5059338;28;20053;-87
2020/12/15 12:55:15;;;;;;;9.07;1.45;;;12.10;99.90;;;;;;5045030;28;20390;-87
2020/12/15 12:57:46;;;;;;;;;;;12.10;99.90;;;;;;5061116;28;20124;-87
2020/12/15 13:00:15;;;;;;;12.13;1.27;;;12.20;99.90;;;;;;5055928;28;19924;-87
2020/12/15 13:02:44;;;;;;;7.38;1.67;;;12.20;99.90;;;;;;5054846;28;20052;-87
2020/12/15 13:05:14;;;;;;;8.82;1.65;;;12.30;99.90;;;;;;5068013;28;20072;-86
2020/12/15 13:07:46;;;;;;;8.93;1.25;;;12.30;99.90;;;;;;5067813;28;20040;-87
2020/12/15 13:10:17;;;;;;;8.32;1.42;;;12.30;99.90;;;;;;5064376;28;20052;-87
2020/12/15 13:12:49;;;;;;;10.23;1.50;;;12.40;99.90;;;;;;5068656;28;20123;-87